sensor_id;sensor_type;location;lat;lon;timestamp;temperature;humidity
81366;DHT22;70822;51.990;22.766;2023-09-19T00:08:50;19.50;74.00
81366;DHT22;70822;51.990;22.766;2023-09-19T00:23:55;19.40;74.20
81366;DHT22;70822;51.990;22.766;2023-09-19T00:39:00;19.10;75.00
81366;DHT22;70822;51.990;22.766;2023-09-19T00:54:05;18.90;77.20
81366;DHT22;70822;51.990;22.766;2023-09-19T01:09:11;18.90;76.80
81366;DHT22;70822;51.990;22.766;2023-09-19T01:39:53;18.70;76.00
81366;DHT22;70822;51.990;22.766;2023-09-19T01:55:04;18.60;76.60
81366;DHT22;70822;51.990;22.766;2023-09-19T02:10:12;18.50;77.40
81366;DHT22;70822;51.990;22.766;2023-09-19T02:25:17;18.40;77.40
81366;DHT22;70822;51.990;22.766;2023-09-19T02:40:22;18.40;77.10
81366;DHT22;70822;51.990;22.766;2023-09-19T02:55:27;18.20;77.30
81366;DHT22;70822;51.990;22.766;2023-09-19T03:10:34;18.10;77.20
81366;DHT22;70822;51.990;22.766;2023-09-19T03:25:41;18.10;77.90
81366;DHT22;70822;51.990;22.766;2023-09-19T03:40:47;18.00;77.80
81366;DHT22;70822;51.990;22.766;2023-09-19T03:55:52;18.00;77.70
81366;DHT22;70822;51.990;22.766;2023-09-19T04:10:57;17.90;78.00
81366;DHT22;70822;51.990;22.766;2023-09-19T04:26:02;18.00;78.40
81366;DHT22;70822;51.990;22.766;2023-09-19T04:41:09;18.00;78.40
81366;DHT22;70822;51.990;22.766;2023-09-19T04:56:14;18.20;78.20
81366;DHT22;70822;51.990;22.766;2023-09-19T05:11:20;18.20;78.30
81366;DHT22;70822;51.990;22.766;2023-09-19T05:26:28;18.40;78.00
81366;DHT22;70822;51.990;22.766;2023-09-19T05:41:33;18.60;77.70
81366;DHT22;70822;51.990;22.766;2023-09-19T05:56:39;18.90;77.40
81366;DHT22;70822;51.990;22.766;2023-09-19T06:11:44;19.30;76.30
81366;DHT22;70822;51.990;22.766;2023-09-19T06:26:48;19.80;75.50
81366;DHT22;70822;51.990;22.766;2023-09-19T06:41:54;20.80;73.50
81366;DHT22;70822;51.990;22.766;2023-09-19T06:56:59;21.30;71.30
81366;DHT22;70822;51.990;22.766;2023-09-19T07:12:04;21.60;70.20
81366;DHT22;70822;51.990;22.766;2023-09-19T07:27:09;22.20;68.50
81366;DHT22;70822;51.990;22.766;2023-09-19T07:42:14;22.80;65.60
81366;DHT22;70822;51.990;22.766;2023-09-19T07:57:22;23.30;63.70
81366;DHT22;70822;51.990;22.766;2023-09-19T08:12:27;23.40;62.30
81366;DHT22;70822;51.990;22.766;2023-09-19T08:27:32;23.40;62.20
81366;DHT22;70822;51.990;22.766;2023-09-19T08:42:49;23.20;62.20
81366;DHT22;70822;51.990;22.766;2023-09-19T08:57:59;23.20;63.10
81366;DHT22;70822;51.990;22.766;2023-09-19T09:13:06;23.60;63.00
81366;DHT22;70822;51.990;22.766;2023-09-19T09:28:11;23.70;61.60
81366;DHT22;70822;51.990;22.766;2023-09-19T09:43:33;23.60;60.90
81366;DHT22;70822;51.990;22.766;2023-09-19T09:58:50;23.60;61.00
81366;DHT22;70822;51.990;22.766;2023-09-19T10:14:01;23.70;61.60
81366;DHT22;70822;51.990;22.766;2023-09-19T10:29:12;23.70;60.90
81366;DHT22;70822;51.990;22.766;2023-09-19T10:44:21;23.30;61.30
81366;DHT22;70822;51.990;22.766;2023-09-19T10:59:28;22.80;62.60
81366;DHT22;70822;51.990;22.766;2023-09-19T11:14:41;22.40;65.20
81366;DHT22;70822;51.990;22.766;2023-09-19T11:29:46;21.80;67.80
81366;DHT22;70822;51.990;22.766;2023-09-19T11:44:51;21.60;69.20
81366;DHT22;70822;51.990;22.766;2023-09-19T11:59:57;21.30;71.10
81366;DHT22;70822;51.990;22.766;2023-09-19T12:15:03;21.10;72.40
81366;DHT22;70822;51.990;22.766;2023-09-19T12:30:09;21.10;72.80
81366;DHT22;70822;51.990;22.766;2023-09-19T12:45:20;20.90;73.20
81366;DHT22;70822;51.990;22.766;2023-09-19T13:00:34;20.80;73.80
81366;DHT22;70822;51.990;22.766;2023-09-19T13:15:53;20.70;74.20
81366;DHT22;70822;51.990;22.766;2023-09-19T13:31:00;20.90;73.80
81366;DHT22;70822;51.990;22.766;2023-09-19T13:46:05;20.90;74.10
81366;DHT22;70822;51.990;22.766;2023-09-19T14:01:12;20.60;75.00
81366;DHT22;70822;51.990;22.766;2023-09-19T14:16:19;20.20;75.70
81366;DHT22;70822;51.990;22.766;2023-09-19T14:31:26;20.00;76.30
81366;DHT22;70822;51.990;22.766;2023-09-19T14:46:31;20.30;75.10
81366;DHT22;70822;51.990;22.766;2023-09-19T15:01:36;20.00;75.50
81366;DHT22;70822;51.990;22.766;2023-09-19T15:16:42;19.80;76.40
81366;DHT22;70822;51.990;22.766;2023-09-19T15:31:48;19.70;76.60
81366;DHT22;70822;51.990;22.766;2023-09-19T15:46:54;19.60;76.80
81366;DHT22;70822;51.990;22.766;2023-09-19T16:01:58;19.50;79.20
81366;DHT22;70822;51.990;22.766;2023-09-19T16:17:03;19.30;81.00
81366;DHT22;70822;51.990;22.766;2023-09-19T16:32:08;19.20;81.50
81366;DHT22;70822;51.990;22.766;2023-09-19T16:47:13;19.00;81.80
81366;DHT22;70822;51.990;22.766;2023-09-19T17:02:18;18.80;81.10
81366;DHT22;70822;51.990;22.766;2023-09-19T17:17:23;18.70;80.70
81366;DHT22;70822;51.990;22.766;2023-09-19T17:32:27;18.80;80.70
81366;DHT22;70822;51.990;22.766;2023-09-19T17:47:32;18.80;80.40
81366;DHT22;70822;51.990;22.766;2023-09-19T18:02:38;18.80;80.20
81366;DHT22;70822;51.990;22.766;2023-09-19T18:17:43;18.70;80.00
81366;DHT22;70822;51.990;22.766;2023-09-19T18:32:47;18.50;80.40
81366;DHT22;70822;51.990;22.766;2023-09-19T18:47:56;18.40;80.40
81366;DHT22;70822;51.990;22.766;2023-09-19T19:03:00;18.50;80.30
81366;DHT22;70822;51.990;22.766;2023-09-19T19:18:05;18.50;80.20
81366;DHT22;70822;51.990;22.766;2023-09-19T19:33:10;18.50;80.80
81366;DHT22;70822;51.990;22.766;2023-09-19T19:48:16;18.50;81.70
81366;DHT22;70822;51.990;22.766;2023-09-19T20:03:21;18.50;82.40
81366;DHT22;70822;51.990;22.766;2023-09-19T20:18:26;18.60;83.10
81366;DHT22;70822;51.990;22.766;2023-09-19T20:33:31;18.60;83.80
81366;DHT22;70822;51.990;22.766;2023-09-19T20:48:36;18.70;84.00
81366;DHT22;70822;51.990;22.766;2023-09-19T21:03:40;18.70;84.20
81366;DHT22;70822;51.990;22.766;2023-09-19T21:18:45;18.60;84.20
81366;DHT22;70822;51.990;22.766;2023-09-19T21:33:51;18.50;84.10
81366;DHT22;70822;51.990;22.766;2023-09-19T21:48:56;18.30;83.80
81366;DHT22;70822;51.990;22.766;2023-09-19T22:04:07;18.20;83.80
81366;DHT22;70822;51.990;22.766;2023-09-19T22:19:14;18.00;83.70
81366;DHT22;70822;51.990;22.766;2023-09-19T22:34:20;17.80;83.70
81366;DHT22;70822;51.990;22.766;2023-09-19T22:49:25;17.70;83.40
81366;DHT22;70822;51.990;22.766;2023-09-19T23:04:31;17.40;83.10
81366;DHT22;70822;51.990;22.766;2023-09-19T23:19:38;17.30;82.70
81366;DHT22;70822;51.990;22.766;2023-09-19T23:34:43;17.00;82.20
81366;DHT22;70822;51.990;22.766;2023-09-19T23:49:52;16.70;82.10
